Terminal Aerodrome Forecast
Issued by NWS

Home | Current Version | Previous Version | Text Only | Print | Product List | Glossary On
Versions: 1 2 3 4 5 6 7 8 9 10 11 12 13 14 15 16
000
FTUS41 KBOX 110528
TAFHYA
TAF
KHYA 110528Z 1106/1206 25005KT P6SM OVC040
     FM111100 25006KT P6SM VCSH OVC030
     FM111300 26009G20KT P6SM VCSH OVC025
     FM111600 26010KT P6SM SCT030
     FM111800 26010KT P6SM FEW250=

USA.gov is the U.S. government's official web portal to all federal, state and local government web resources and services.